sensor_id;sensor_type;location;lat;lon;timestamp;P1;durP1;ratioP1;P2;durP2;ratioP2
54177;SDS011;40085;53.004;6.770;2024-01-07T00:01:56;2.47;;;2.28;;
54177;SDS011;40085;53.004;6.770;2024-01-07T00:04:21;2.50;;;2.30;;
54177;SDS011;40085;53.004;6.770;2024-01-07T00:06:47;2.58;;;2.38;;
54177;SDS011;40085;53.004;6.770;2024-01-07T00:09:12;2.20;;;2.00;;
54177;SDS011;40085;53.004;6.770;2024-01-07T00:11:39;2.42;;;2.22;;
54177;SDS011;40085;53.004;6.770;2024-01-07T00:14:05;2.72;;;2.45;;
54177;SDS011;40085;53.004;6.770;2024-01-07T00:16:31;2.80;;;2.60;;
54177;SDS011;40085;53.004;6.770;2024-01-07T00:18:57;3.10;;;2.38;;
54177;SDS011;40085;53.004;6.770;2024-01-07T00:21:22;2.47;;;2.28;;
54177;SDS011;40085;53.004;6.770;2024-01-07T00:23:49;2.60;;;2.40;;
54177;SDS011;40085;53.004;6.770;2024-01-07T00:26:14;2.50;;;2.30;;
54177;SDS011;40085;53.004;6.770;2024-01-07T00:28:40;2.47;;;2.28;;
54177;SDS011;40085;53.004;6.770;2024-01-07T00:31:06;2.70;;;2.50;;
54177;SDS011;40085;53.004;6.770;2024-01-07T00:33:34;2.72;;;2.00;;
54177;SDS011;40085;53.004;6.770;2024-01-07T00:36:01;2.30;;;2.10;;
54177;SDS011;40085;53.004;6.770;2024-01-07T00:38:27;2.53;;;2.33;;
54177;SDS011;40085;53.004;6.770;2024-01-07T00:40:53;2.30;;;2.10;;
54177;SDS011;40085;53.004;6.770;2024-01-07T00:43:18;2.25;;;2.05;;
54177;SDS011;40085;53.004;6.770;2024-01-07T00:45:44;2.38;;;2.17;;
54177;SDS011;40085;53.004;6.770;2024-01-07T00:48:09;2.53;;;2.10;;
54177;SDS011;40085;53.004;6.770;2024-01-07T00:50:35;2.10;;;1.90;;
54177;SDS011;40085;53.004;6.770;2024-01-07T00:53:01;3.35;;;2.20;;
54177;SDS011;40085;53.004;6.770;2024-01-07T00:55:27;2.40;;;2.20;;
54177;SDS011;40085;53.004;6.770;2024-01-07T00:57:52;2.30;;;2.10;;
54177;SDS011;40085;53.004;6.770;2024-01-07T01:00:18;2.00;;;1.90;;
54177;SDS011;40085;53.004;6.770;2024-01-07T01:02:44;3.20;;;2.63;;
54177;SDS011;40085;53.004;6.770;2024-01-07T01:05:10;2.15;;;2.00;;
54177;SDS011;40085;53.004;6.770;2024-01-07T01:07:36;2.47;;;2.28;;
54177;SDS011;40085;53.004;6.770;2024-01-07T01:10:02;2.40;;;2.20;;
54177;SDS011;40085;53.004;6.770;2024-01-07T01:12:28;2.42;;;2.22;;
54177;SDS011;40085;53.004;6.770;2024-01-07T01:14:53;2.60;;;2.40;;
54177;SDS011;40085;53.004;6.770;2024-01-07T01:17:19;2.25;;;2.05;;
54177;SDS011;40085;53.004;6.770;2024-01-07T01:19:45;1.95;;;1.80;;
54177;SDS011;40085;53.004;6.770;2024-01-07T01:22:10;2.47;;;2.28;;
54177;SDS011;40085;53.004;6.770;2024-01-07T01:24:36;2.30;;;2.05;;
54177;SDS011;40085;53.004;6.770;2024-01-07T01:27:02;2.30;;;2.10;;
54177;SDS011;40085;53.004;6.770;2024-01-07T01:29:28;2.35;;;2.15;;
54177;SDS011;40085;53.004;6.770;2024-01-07T01:31:53;1.88;;;1.77;;
54177;SDS011;40085;53.004;6.770;2024-01-07T01:34:19;2.25;;;2.05;;
54177;SDS011;40085;53.004;6.770;2024-01-07T01:36:45;2.38;;;2.10;;
54177;SDS011;40085;53.004;6.770;2024-01-07T01:39:10;1.80;;;1.70;;
54177;SDS011;40085;53.004;6.770;2024-01-07T01:41:36;1.88;;;1.75;;
54177;SDS011;40085;53.004;6.770;2024-01-07T01:44:01;1.98;;;1.83;;
54177;SDS011;40085;53.004;6.770;2024-01-07T01:46:28;2.65;;;2.03;;
54177;SDS011;40085;53.004;6.770;2024-01-07T01:48:54;1.70;;;1.60;;
54177;SDS011;40085;53.004;6.770;2024-01-07T01:51:21;2.15;;;1.95;;
54177;SDS011;40085;53.004;6.770;2024-01-07T01:53:47;2.03;;;1.92;;
54177;SDS011;40085;53.004;6.770;2024-01-07T01:56:14;2.20;;;1.90;;
54177;SDS011;40085;53.004;6.770;2024-01-07T01:58:45;1.90;;;1.80;;
54177;SDS011;40085;53.004;6.770;2024-01-07T02:01:12;2.30;;;2.00;;
54177;SDS011;40085;53.004;6.770;2024-01-07T02:03:38;2.05;;;1.80;;
54177;SDS011;40085;53.004;6.770;2024-01-07T02:06:04;1.80;;;1.70;;
54177;SDS011;40085;53.004;6.770;2024-01-07T02:08:30;1.98;;;1.77;;
54177;SDS011;40085;53.004;6.770;2024-01-07T02:10:56;1.63;;;1.52;;
54177;SDS011;40085;53.004;6.770;2024-01-07T02:13:22;1.65;;;1.55;;
54177;SDS011;40085;53.004;6.770;2024-01-07T02:15:47;1.75;;;1.65;;
54177;SDS011;40085;53.004;6.770;2024-01-07T02:18:13;2.28;;;2.08;;
54177;SDS011;40085;53.004;6.770;2024-01-07T02:20:39;2.05;;;1.73;;
54177;SDS011;40085;53.004;6.770;2024-01-07T02:23:05;1.60;;;1.50;;
54177;SDS011;40085;53.004;6.770;2024-01-07T02:25:36;2.17;;;1.75;;
54177;SDS011;40085;53.004;6.770;2024-01-07T02:28:02;1.75;;;1.55;;
54177;SDS011;40085;53.004;6.770;2024-01-07T02:30:29;1.45;;;1.35;;
54177;SDS011;40085;53.004;6.770;2024-01-07T02:32:55;2.40;;;1.70;;
54177;SDS011;40085;53.004;6.770;2024-01-07T02:35:20;1.92;;;1.83;;
54177;SDS011;40085;53.004;6.770;2024-01-07T02:37:46;2.08;;;1.88;;
54177;SDS011;40085;53.004;6.770;2024-01-07T02:40:11;1.80;;;1.38;;
54177;SDS011;40085;53.004;6.770;2024-01-07T02:42:37;1.35;;;1.23;;
54177;SDS011;40085;53.004;6.770;2024-01-07T02:45:03;1.77;;;1.50;;
54177;SDS011;40085;53.004;6.770;2024-01-07T02:47:29;1.90;;;1.75;;
54177;SDS011;40085;53.004;6.770;2024-01-07T02:49:54;1.30;;;1.20;;
54177;SDS011;40085;53.004;6.770;2024-01-07T02:52:20;1.35;;;1.25;;
54177;SDS011;40085;53.004;6.770;2024-01-07T02:54:46;3.45;;;1.45;;
54177;SDS011;40085;53.004;6.770;2024-01-07T02:57:11;2.28;;;1.50;;
54177;SDS011;40085;53.004;6.770;2024-01-07T02:59:37;1.50;;;1.40;;
54177;SDS011;40085;53.004;6.770;2024-01-07T03:02:02;1.88;;;1.35;;
54177;SDS011;40085;53.004;6.770;2024-01-07T03:04:28;1.60;;;1.40;;
54177;SDS011;40085;53.004;6.770;2024-01-07T03:06:54;2.17;;;1.77;;
54177;SDS011;40085;53.004;6.770;2024-01-07T03:09:19;1.67;;;1.30;;
54177;SDS011;40085;53.004;6.770;2024-01-07T03:11:45;1.60;;;1.50;;
54177;SDS011;40085;53.004;6.770;2024-01-07T03:14:10;1.42;;;1.33;;
54177;SDS011;40085;53.004;6.770;2024-01-07T03:16:36;2.15;;;1.70;;
54177;SDS011;40085;53.004;6.770;2024-01-07T03:19:02;1.67;;;1.58;;
54177;SDS011;40085;53.004;6.770;2024-01-07T03:21:29;1.85;;;1.48;;
54177;SDS011;40085;53.004;6.770;2024-01-07T03:23:55;1.40;;;1.30;;
54177;SDS011;40085;53.004;6.770;2024-01-07T03:26:21;1.50;;;1.40;;
54177;SDS011;40085;53.004;6.770;2024-01-07T03:28:46;1.10;;;1.00;;
54177;SDS011;40085;53.004;6.770;2024-01-07T03:31:12;1.75;;;1.65;;
54177;SDS011;40085;53.004;6.770;2024-01-07T03:33:43;1.50;;;1.40;;
54177;SDS011;40085;53.004;6.770;2024-01-07T03:36:09;1.40;;;1.30;;
54177;SDS011;40085;53.004;6.770;2024-01-07T03:38:36;1.50;;;1.40;;
54177;SDS011;40085;53.004;6.770;2024-01-07T03:41:02;1.40;;;1.30;;
54177;SDS011;40085;53.004;6.770;2024-01-07T03:43:28;2.20;;;1.90;;
54177;SDS011;40085;53.004;6.770;2024-01-07T03:45:54;1.65;;;1.30;;
54177;SDS011;40085;53.004;6.770;2024-01-07T03:48:20;1.48;;;1.30;;
54177;SDS011;40085;53.004;6.770;2024-01-07T03:50:46;1.50;;;1.40;;
54177;SDS011;40085;53.004;6.770;2024-01-07T03:53:12;1.50;;;1.40;;
54177;SDS011;40085;53.004;6.770;2024-01-07T03:55:38;1.33;;;1.23;;
54177;SDS011;40085;53.004;6.770;2024-01-07T03:58:04;2.08;;;1.60;;
54177;SDS011;40085;53.004;6.770;2024-01-07T04:00:33;1.60;;;1.33;;
54177;SDS011;40085;53.004;6.770;2024-01-07T04:03:00;1.25;;;1.15;;
54177;SDS011;40085;53.004;6.770;2024-01-07T04:05:26;1.50;;;1.35;;
54177;SDS011;40085;53.004;6.770;2024-01-07T04:07:52;1.30;;;1.20;;
54177;SDS011;40085;53.004;6.770;2024-01-07T04:10:17;1.15;;;1.08;;
54177;SDS011;40085;53.004;6.770;2024-01-07T04:12:43;1.58;;;1.48;;
54177;SDS011;40085;53.004;6.770;2024-01-07T04:15:11;1.48;;;1.30;;
54177;SDS011;40085;53.004;6.770;2024-01-07T04:17:37;1.50;;;1.40;;
54177;SDS011;40085;53.004;6.770;2024-01-07T04:20:03;1.48;;;1.38;;
54177;SDS011;40085;53.004;6.770;2024-01-07T04:22:29;1.67;;;1.30;;
54177;SDS011;40085;53.004;6.770;2024-01-07T04:24:54;1.48;;;1.38;;
54177;SDS011;40085;53.004;6.770;2024-01-07T04:27:20;1.15;;;1.08;;
54177;SDS011;40085;53.004;6.770;2024-01-07T04:29:46;1.30;;;1.20;;
54177;SDS011;40085;53.004;6.770;2024-01-07T04:32:12;1.42;;;1.27;;
54177;SDS011;40085;53.004;6.770;2024-01-07T04:34:37;1.10;;;1.00;;
54177;SDS011;40085;53.004;6.770;2024-01-07T04:37:03;1.83;;;1.52;;
54177;SDS011;40085;53.004;6.770;2024-01-07T04:39:28;1.25;;;1.15;;
54177;SDS011;40085;53.004;6.770;2024-01-07T04:41:54;1.20;;;1.10;;
54177;SDS011;40085;53.004;6.770;2024-01-07T04:44:20;1.17;;;1.08;;
54177;SDS011;40085;53.004;6.770;2024-01-07T04:46:47;1.08;;;0.98;;
54177;SDS011;40085;53.004;6.770;2024-01-07T04:49:13;1.70;;;1.40;;
54177;SDS011;40085;53.004;6.770;2024-01-07T04:51:39;1.35;;;1.25;;
54177;SDS011;40085;53.004;6.770;2024-01-07T04:54:05;1.38;;;1.27;;
54177;SDS011;40085;53.004;6.770;2024-01-07T04:56:31;1.08;;;0.98;;
54177;SDS011;40085;53.004;6.770;2024-01-07T04:58:57;1.25;;;1.10;;
54177;SDS011;40085;53.004;6.770;2024-01-07T05:01:23;0.95;;;0.95;;
54177;SDS011;40085;53.004;6.770;2024-01-07T05:03:48;1.20;;;1.10;;
54177;SDS011;40085;53.004;6.770;2024-01-07T05:06:14;0.90;;;0.90;;
54177;SDS011;40085;53.004;6.770;2024-01-07T05:08:40;1.25;;;0.95;;
54177;SDS011;40085;53.004;6.770;2024-01-07T05:11:07;1.00;;;1.00;;
54177;SDS011;40085;53.004;6.770;2024-01-07T05:13:32;1.05;;;0.90;;
54177;SDS011;40085;53.004;6.770;2024-01-07T05:15:58;1.20;;;1.10;;
54177;SDS011;40085;53.004;6.770;2024-01-07T05:18:24;2.08;;;1.08;;
54177;SDS011;40085;53.004;6.770;2024-01-07T05:20:50;0.88;;;0.88;;
54177;SDS011;40085;53.004;6.770;2024-01-07T05:23:16;2.13;;;1.00;;
54177;SDS011;40085;53.004;6.770;2024-01-07T05:25:43;0.82;;;0.82;;
54177;SDS011;40085;53.004;6.770;2024-01-07T05:28:09;0.90;;;0.90;;
54177;SDS011;40085;53.004;6.770;2024-01-07T05:30:35;1.15;;;0.90;;
54177;SDS011;40085;53.004;6.770;2024-01-07T05:33:01;1.60;;;0.98;;
54177;SDS011;40085;53.004;6.770;2024-01-07T05:35:27;1.30;;;1.00;;
54177;SDS011;40085;53.004;6.770;2024-01-07T05:37:53;1.00;;;1.00;;
54177;SDS011;40085;53.004;6.770;2024-01-07T05:40:18;0.82;;;0.80;;
54177;SDS011;40085;53.004;6.770;2024-01-07T05:42:44;0.85;;;0.85;;
54177;SDS011;40085;53.004;6.770;2024-01-07T05:45:10;1.05;;;0.95;;
54177;SDS011;40085;53.004;6.770;2024-01-07T05:47:35;0.80;;;0.80;;
54177;SDS011;40085;53.004;6.770;2024-01-07T05:50:01;0.80;;;0.80;;
54177;SDS011;40085;53.004;6.770;2024-01-07T05:52:27;1.08;;;1.05;;
54177;SDS011;40085;53.004;6.770;2024-01-07T05:54:53;0.82;;;0.82;;
54177;SDS011;40085;53.004;6.770;2024-01-07T05:57:18;0.80;;;0.80;;
54177;SDS011;40085;53.004;6.770;2024-01-07T05:59:44;1.23;;;0.90;;
54177;SDS011;40085;53.004;6.770;2024-01-07T06:02:10;1.13;;;0.70;;
54177;SDS011;40085;53.004;6.770;2024-01-07T06:04:37;0.82;;;0.82;;
54177;SDS011;40085;53.004;6.770;2024-01-07T06:07:03;1.02;;;1.00;;
54177;SDS011;40085;53.004;6.770;2024-01-07T06:09:29;0.80;;;0.80;;
54177;SDS011;40085;53.004;6.770;2024-01-07T06:11:55;0.77;;;0.77;;
54177;SDS011;40085;53.004;6.770;2024-01-07T06:14:21;0.82;;;0.82;;
54177;SDS011;40085;53.004;6.770;2024-01-07T06:16:50;0.80;;;0.80;;
54177;SDS011;40085;53.004;6.770;2024-01-07T06:19:19;0.82;;;0.80;;
54177;SDS011;40085;53.004;6.770;2024-01-07T06:21:44;1.00;;;0.82;;
54177;SDS011;40085;53.004;6.770;2024-01-07T06:24:10;0.70;;;0.70;;
54177;SDS011;40085;53.004;6.770;2024-01-07T06:26:36;0.63;;;0.63;;
54177;SDS011;40085;53.004;6.770;2024-01-07T06:29:02;0.73;;;0.73;;
54177;SDS011;40085;53.004;6.770;2024-01-07T06:31:28;0.80;;;0.80;;
54177;SDS011;40085;53.004;6.770;2024-01-07T06:33:53;0.80;;;0.80;;
54177;SDS011;40085;53.004;6.770;2024-01-07T06:36:22;0.73;;;0.70;;
54177;SDS011;40085;53.004;6.770;2024-01-07T06:38:49;0.85;;;0.70;;
54177;SDS011;40085;53.004;6.770;2024-01-07T06:41:15;0.82;;;0.82;;
54177;SDS011;40085;53.004;6.770;2024-01-07T06:43:40;1.13;;;1.02;;
54177;SDS011;40085;53.004;6.770;2024-01-07T06:46:06;0.70;;;0.70;;
54177;SDS011;40085;53.004;6.770;2024-01-07T06:48:31;0.93;;;0.90;;
54177;SDS011;40085;53.004;6.770;2024-01-07T06:50:57;0.80;;;0.80;;
54177;SDS011;40085;53.004;6.770;2024-01-07T06:53:23;1.00;;;0.90;;
54177;SDS011;40085;53.004;6.770;2024-01-07T06:55:49;0.70;;;0.70;;
54177;SDS011;40085;53.004;6.770;2024-01-07T06:58:15;0.95;;;0.95;;
54177;SDS011;40085;53.004;6.770;2024-01-07T07:00:40;1.10;;;0.93;;
54177;SDS011;40085;53.004;6.770;2024-01-07T07:03:06;0.77;;;0.77;;
54177;SDS011;40085;53.004;6.770;2024-01-07T07:05:32;0.95;;;0.82;;
54177;SDS011;40085;53.004;6.770;2024-01-07T07:07:57;0.90;;;0.82;;
54177;SDS011;40085;53.004;6.770;2024-01-07T18:15:59;1.52;;;1.10;;
54177;SDS011;40085;53.004;6.770;2024-01-07T18:18:39;1.33;;;1.23;;
54177;SDS011;40085;53.004;6.770;2024-01-07T18:21:04;1.60;;;1.27;;
54177;SDS011;40085;53.004;6.770;2024-01-07T18:23:30;1.10;;;1.02;;
54177;SDS011;40085;53.004;6.770;2024-01-07T18:25:56;0.90;;;0.90;;
54177;SDS011;40085;53.004;6.770;2024-01-07T18:28:21;1.30;;;1.20;;
54177;SDS011;40085;53.004;6.770;2024-01-07T18:30:47;1.27;;;1.17;;
54177;SDS011;40085;53.004;6.770;2024-01-07T18:33:13;1.20;;;1.10;;
54177;SDS011;40085;53.004;6.770;2024-01-07T18:35:39;1.15;;;1.00;;
54177;SDS011;40085;53.004;6.770;2024-01-07T18:38:06;0.90;;;0.90;;
54177;SDS011;40085;53.004;6.770;2024-01-07T18:40:33;0.90;;;0.90;;
54177;SDS011;40085;53.004;6.770;2024-01-07T18:42:58;1.35;;;1.25;;
54177;SDS011;40085;53.004;6.770;2024-01-07T18:45:26;0.95;;;0.95;;
54177;SDS011;40085;53.004;6.770;2024-01-07T18:47:53;0.93;;;0.93;;
54177;SDS011;40085;53.004;6.770;2024-01-07T18:50:19;1.10;;;1.00;;
54177;SDS011;40085;53.004;6.770;2024-01-07T18:52:45;0.80;;;0.80;;
54177;SDS011;40085;53.004;6.770;2024-01-07T18:55:15;1.30;;;1.10;;
54177;SDS011;40085;53.004;6.770;2024-01-07T18:57:40;0.85;;;0.85;;
54177;SDS011;40085;53.004;6.770;2024-01-07T19:00:08;0.90;;;0.90;;
54177;SDS011;40085;53.004;6.770;2024-01-07T19:02:35;0.85;;;0.85;;
54177;SDS011;40085;53.004;6.770;2024-01-07T19:05:00;0.70;;;0.70;;
54177;SDS011;40085;53.004;6.770;2024-01-07T19:07:27;0.90;;;0.90;;
54177;SDS011;40085;53.004;6.770;2024-01-07T19:09:52;1.30;;;1.13;;
54177;SDS011;40085;53.004;6.770;2024-01-07T19:12:18;0.82;;;0.82;;
54177;SDS011;40085;53.004;6.770;2024-01-07T19:14:44;1.95;;;1.35;;
54177;SDS011;40085;53.004;6.770;2024-01-07T19:17:17;1.02;;;1.02;;
54177;SDS011;40085;53.004;6.770;2024-01-07T19:19:56;0.93;;;0.90;;
54177;SDS011;40085;53.004;6.770;2024-01-07T19:22:21;0.90;;;0.90;;
54177;SDS011;40085;53.004;6.770;2024-01-07T19:24:47;1.48;;;1.15;;
54177;SDS011;40085;53.004;6.770;2024-01-07T19:27:15;0.90;;;0.90;;
54177;SDS011;40085;53.004;6.770;2024-01-07T19:29:41;1.60;;;1.15;;
54177;SDS011;40085;53.004;6.770;2024-01-07T19:32:06;1.20;;;0.90;;
54177;SDS011;40085;53.004;6.770;2024-01-07T19:34:32;0.60;;;0.60;;
54177;SDS011;40085;53.004;6.770;2024-01-07T19:37:00;0.82;;;0.82;;
54177;SDS011;40085;53.004;6.770;2024-01-07T19:39:26;1.17;;;0.98;;
54177;SDS011;40085;53.004;6.770;2024-01-07T19:41:51;1.23;;;1.13;;
54177;SDS011;40085;53.004;6.770;2024-01-07T19:44:18;2.00;;;1.50;;
54177;SDS011;40085;53.004;6.770;2024-01-07T19:46:44;0.80;;;0.80;;
54177;SDS011;40085;53.004;6.770;2024-01-07T19:49:10;0.88;;;0.88;;
54177;SDS011;40085;53.004;6.770;2024-01-07T19:51:36;1.70;;;0.80;;
54177;SDS011;40085;53.004;6.770;2024-01-07T19:54:02;0.90;;;0.90;;
54177;SDS011;40085;53.004;6.770;2024-01-07T19:56:28;0.82;;;0.82;;
54177;SDS011;40085;53.004;6.770;2024-01-07T19:58:53;0.80;;;0.80;;
54177;SDS011;40085;53.004;6.770;2024-01-07T20:01:20;1.00;;;0.90;;
54177;SDS011;40085;53.004;6.770;2024-01-07T20:03:46;0.85;;;0.85;;
54177;SDS011;40085;53.004;6.770;2024-01-07T20:06:12;1.00;;;0.90;;
54177;SDS011;40085;53.004;6.770;2024-01-07T20:08:39;1.05;;;1.02;;
54177;SDS011;40085;53.004;6.770;2024-01-07T20:11:05;1.00;;;1.00;;
54177;SDS011;40085;53.004;6.770;2024-01-07T20:13:31;0.88;;;0.88;;
54177;SDS011;40085;53.004;6.770;2024-01-07T20:16:04;1.10;;;1.00;;
54177;SDS011;40085;53.004;6.770;2024-01-07T20:18:29;1.40;;;0.90;;
54177;SDS011;40085;53.004;6.770;2024-01-07T20:20:55;0.90;;;0.90;;
54177;SDS011;40085;53.004;6.770;2024-01-07T20:23:21;1.17;;;1.08;;
54177;SDS011;40085;53.004;6.770;2024-01-07T20:25:46;1.10;;;1.00;;
54177;SDS011;40085;53.004;6.770;2024-01-07T20:28:13;0.82;;;0.82;;
54177;SDS011;40085;53.004;6.770;2024-01-07T20:30:39;1.00;;;1.00;;
54177;SDS011;40085;53.004;6.770;2024-01-07T20:33:05;3.30;;;1.00;;
54177;SDS011;40085;53.004;6.770;2024-01-07T20:35:36;1.00;;;1.00;;
54177;SDS011;40085;53.004;6.770;2024-01-07T20:38:01;1.27;;;1.17;;
54177;SDS011;40085;53.004;6.770;2024-01-07T20:40:27;0.90;;;0.90;;
54177;SDS011;40085;53.004;6.770;2024-01-07T20:42:53;0.77;;;0.77;;
54177;SDS011;40085;53.004;6.770;2024-01-07T20:45:19;1.20;;;1.10;;
54177;SDS011;40085;53.004;6.770;2024-01-07T20:47:45;0.80;;;0.80;;
54177;SDS011;40085;53.004;6.770;2024-01-07T20:50:11;0.80;;;0.80;;
54177;SDS011;40085;53.004;6.770;2024-01-07T20:52:37;0.90;;;0.90;;
54177;SDS011;40085;53.004;6.770;2024-01-07T20:55:03;2.05;;;0.90;;
54177;SDS011;40085;53.004;6.770;2024-01-07T20:57:29;1.27;;;1.00;;
54177;SDS011;40085;53.004;6.770;2024-01-07T20:59:55;0.82;;;0.82;;
54177;SDS011;40085;53.004;6.770;2024-01-07T21:02:20;1.15;;;1.05;;
54177;SDS011;40085;53.004;6.770;2024-01-07T21:04:46;1.05;;;1.00;;
54177;SDS011;40085;53.004;6.770;2024-01-07T21:07:11;1.02;;;0.93;;
54177;SDS011;40085;53.004;6.770;2024-01-07T21:09:37;1.13;;;1.02;;
54177;SDS011;40085;53.004;6.770;2024-01-07T21:12:03;0.90;;;0.90;;
54177;SDS011;40085;53.004;6.770;2024-01-07T21:14:29;0.95;;;0.88;;
54177;SDS011;40085;53.004;6.770;2024-01-07T21:16:55;1.13;;;1.10;;
54177;SDS011;40085;53.004;6.770;2024-01-07T21:19:27;1.20;;;1.10;;
54177;SDS011;40085;53.004;6.770;2024-01-07T21:21:53;0.85;;;0.85;;
54177;SDS011;40085;53.004;6.770;2024-01-07T21:24:19;0.80;;;0.80;;
54177;SDS011;40085;53.004;6.770;2024-01-07T21:26:45;1.23;;;1.00;;
54177;SDS011;40085;53.004;6.770;2024-01-07T21:29:11;0.90;;;0.90;;
54177;SDS011;40085;53.004;6.770;2024-01-07T21:31:36;1.00;;;0.90;;
54177;SDS011;40085;53.004;6.770;2024-01-07T21:34:02;1.05;;;1.05;;
54177;SDS011;40085;53.004;6.770;2024-01-07T21:36:27;0.88;;;0.88;;
54177;SDS011;40085;53.004;6.770;2024-01-07T21:38:53;1.10;;;1.00;;
54177;SDS011;40085;53.004;6.770;2024-01-07T21:41:19;0.93;;;0.93;;
54177;SDS011;40085;53.004;6.770;2024-01-07T21:43:45;0.90;;;0.90;;
54177;SDS011;40085;53.004;6.770;2024-01-07T21:46:10;0.90;;;0.90;;
54177;SDS011;40085;53.004;6.770;2024-01-07T21:48:37;0.93;;;0.93;;
54177;SDS011;40085;53.004;6.770;2024-01-07T21:51:05;1.00;;;1.00;;
54177;SDS011;40085;53.004;6.770;2024-01-07T21:53:32;1.00;;;0.90;;
54177;SDS011;40085;53.004;6.770;2024-01-07T21:55:58;1.10;;;1.00;;
54177;SDS011;40085;53.004;6.770;2024-01-07T21:58:23;0.90;;;0.90;;
54177;SDS011;40085;53.004;6.770;2024-01-07T22:00:49;1.17;;;1.08;;
54177;SDS011;40085;53.004;6.770;2024-01-07T22:03:15;1.10;;;1.00;;
54177;SDS011;40085;53.004;6.770;2024-01-07T22:05:41;0.93;;;0.93;;
54177;SDS011;40085;53.004;6.770;2024-01-07T22:08:06;1.63;;;1.15;;
54177;SDS011;40085;53.004;6.770;2024-01-07T22:10:39;0.98;;;0.98;;
54177;SDS011;40085;53.004;6.770;2024-01-07T22:13:18;1.52;;;1.30;;
54177;SDS011;40085;53.004;6.770;2024-01-07T22:15:50;0.80;;;0.80;;
54177;SDS011;40085;53.004;6.770;2024-01-07T22:18:29;1.00;;;1.00;;
54177;SDS011;40085;53.004;6.770;2024-01-07T22:20:56;0.82;;;0.82;;
54177;SDS011;40085;53.004;6.770;2024-01-07T22:23:21;1.17;;;1.08;;
54177;SDS011;40085;53.004;6.770;2024-01-07T22:25:47;1.13;;;1.02;;
54177;SDS011;40085;53.004;6.770;2024-01-07T22:28:12;1.25;;;1.17;;
54177;SDS011;40085;53.004;6.770;2024-01-07T22:30:38;2.92;;;1.00;;
54177;SDS011;40085;53.004;6.770;2024-01-07T22:33:04;2.33;;;1.10;;
54177;SDS011;40085;53.004;6.770;2024-01-07T22:35:30;0.80;;;0.80;;
54177;SDS011;40085;53.004;6.770;2024-01-07T22:37:56;0.95;;;0.95;;
54177;SDS011;40085;53.004;6.770;2024-01-07T22:40:22;0.80;;;0.80;;
54177;SDS011;40085;53.004;6.770;2024-01-07T22:42:47;1.20;;;1.10;;
54177;SDS011;40085;53.004;6.770;2024-01-07T22:45:13;0.90;;;0.90;;
54177;SDS011;40085;53.004;6.770;2024-01-07T22:47:39;1.00;;;1.00;;
54177;SDS011;40085;53.004;6.770;2024-01-07T22:50:04;0.90;;;0.90;;
54177;SDS011;40085;53.004;6.770;2024-01-07T22:52:30;1.30;;;1.20;;
54177;SDS011;40085;53.004;6.770;2024-01-07T22:54:56;1.00;;;1.00;;
54177;SDS011;40085;53.004;6.770;2024-01-07T22:57:21;1.10;;;1.00;;
54177;SDS011;40085;53.004;6.770;2024-01-07T22:59:47;2.03;;;1.40;;
54177;SDS011;40085;53.004;6.770;2024-01-07T23:02:13;1.63;;;1.30;;
54177;SDS011;40085;53.004;6.770;2024-01-07T23:04:40;1.02;;;1.00;;
54177;SDS011;40085;53.004;6.770;2024-01-07T23:07:05;0.90;;;0.90;;
54177;SDS011;40085;53.004;6.770;2024-01-07T23:09:31;1.38;;;1.13;;
54177;SDS011;40085;53.004;6.770;2024-01-07T23:11:56;1.40;;;1.30;;
54177;SDS011;40085;53.004;6.770;2024-01-07T23:14:22;1.38;;;1.10;;
54177;SDS011;40085;53.004;6.770;2024-01-07T23:16:48;1.10;;;1.00;;
54177;SDS011;40085;53.004;6.770;2024-01-07T23:19:33;1.65;;;1.00;;
54177;SDS011;40085;53.004;6.770;2024-01-07T23:21:59;1.30;;;1.20;;
54177;SDS011;40085;53.004;6.770;2024-01-07T23:24:25;1.20;;;1.10;;
54177;SDS011;40085;53.004;6.770;2024-01-07T23:26:50;1.67;;;1.00;;
54177;SDS011;40085;53.004;6.770;2024-01-07T23:29:16;1.13;;;1.02;;
54177;SDS011;40085;53.004;6.770;2024-01-07T23:31:41;1.35;;;1.00;;
54177;SDS011;40085;53.004;6.770;2024-01-07T23:34:10;1.30;;;1.20;;
54177;SDS011;40085;53.004;6.770;2024-01-07T23:36:36;1.02;;;1.00;;
54177;SDS011;40085;53.004;6.770;2024-01-07T23:39:02;1.42;;;1.33;;
54177;SDS011;40085;53.004;6.770;2024-01-07T23:41:29;1.38;;;1.20;;
54177;SDS011;40085;53.004;6.770;2024-01-07T23:43:55;2.85;;;1.48;;
54177;SDS011;40085;53.004;6.770;2024-01-07T23:46:20;1.20;;;1.10;;
54177;SDS011;40085;53.004;6.770;2024-01-07T23:48:46;1.13;;;1.02;;
54177;SDS011;40085;53.004;6.770;2024-01-07T23:51:12;0.77;;;0.77;;
54177;SDS011;40085;53.004;6.770;2024-01-07T23:53:38;1.38;;;1.27;;
54177;SDS011;40085;53.004;6.770;2024-01-07T23:56:04;1.20;;;1.10;;
54177;SDS011;40085;53.004;6.770;2024-01-07T23:58:30;1.90;;;1.30;;
